Time;durP1;ratioP1;P1;durP2;ratioP2;P2;SDS_P1;SDS_P2;PMS_P1;PMS_P2;Temp;Humidity;BMP_temperature;BMP_pressure;BME280_temperature;BME280_humidity;BME280_pressure;Samples;Min_cycle;Max_cycle;Signal;HPM_P1;HPM_P2
2022/03/04 00:00:13;;;;;;;;;40.75;37.00;;;;;9.56;68.10;101085.66;5043914;28;45692;-88
2022/03/04 00:02:38;;;;;;;;;52.75;44.50;;;;;9.55;68.05;101088.19;5043526;28;45244;-91
2022/03/04 00:05:04;;;;;;;;;49.50;41.25;;;;;8.45;67.96;100905.00;5043274;28;44733;-93
2022/03/04 00:07:30;;;;;;;;;47.00;40.75;;;;;8.51;68.12;100928.84;5045347;28;44758;-89
2022/03/04 00:09:55;;;;;;;;;52.50;41.00;;;;;9.47;68.14;101100.09;5025952;28;48212;-86
2022/03/04 00:12:20;;;;;;;;;53.00;45.00;;;;;8.34;68.41;100899.25;5034080;28;45281;-92
2022/03/04 00:14:46;;;;;;;;;52.75;43.00;;;;;9.43;68.60;101100.78;5033170;28;45341;-92
2022/03/04 00:17:12;;;;;;;;;54.25;44.00;;;;;8.84;68.48;100997.63;5034396;28;44764;-88
2022/03/04 00:19:37;;;;;;;;;50.75;41.25;;;;;8.63;68.18;100967.84;5035411;28;46596;-95
2022/03/04 00:22:03;;;;;;;;;49.50;41.00;;;;;9.20;68.29;101076.13;5034342;28;44670;-90
2022/03/04 00:24:28;;;;;;;;;50.25;42.25;;;;;9.26;68.52;101090.44;5013655;28;44821;-94
2022/03/04 00:26:53;;;;;;;;;52.67;44.00;;;;;8.97;68.40;101041.94;5018449;28;44751;-94
2022/03/04 00:29:18;;;;;;;;;53.00;43.33;;;;;8.68;68.69;101009.13;5035893;28;48064;-93
2022/03/04 00:31:44;;;;;;;;;52.75;42.00;;;;;8.06;68.79;100897.06;5018311;28;45926;-93
2022/03/04 00:34:11;;;;;;;;;48.50;41.50;;;;;9.10;68.60;101084.41;5016417;28;45317;-81
2022/03/04 00:36:38;;;;;;;;;51.75;43.75;;;;;8.92;68.51;101060.91;5011428;28;45279;-87
2022/03/04 00:39:07;;;;;;;;;54.00;43.50;;;;;9.10;68.89;101089.66;5025352;28;45501;-91
2022/03/04 00:41:32;;;;;;;;;53.75;45.00;;;;;8.48;68.84;100983.75;5025021;28;45621;-85
2022/03/04 00:43:58;;;;;;;;;54.25;44.00;;;;;9.07;68.83;101084.28;5010100;28;45460;-81
2022/03/04 00:46:23;;;;;;;;;51.67;43.00;;;;;9.00;69.10;101078.75;5027286;28;45329;-81
2022/03/04 00:48:49;;;;;;;;;52.00;44.25;;;;;8.82;68.74;101045.53;5024338;28;46069;-82
2022/03/04 00:51:15;;;;;;;;;52.75;44.00;;;;;8.62;68.83;101005.31;5028632;28;45258;-82
2022/03/04 00:53:41;;;;;;;;;55.00;44.25;;;;;8.79;69.04;101039.34;5029490;28;45621;-89
2022/03/04 00:56:08;;;;;;;;;46.00;40.25;;;;;9.12;69.10;101075.81;5030603;28;45482;-90
2022/03/04 00:58:34;;;;;;;;;49.75;41.25;;;;;9.16;69.44;101095.19;5031597;28;46254;-81
2022/03/04 01:01:02;;;;;;;;;48.25;41.50;;;;;9.20;69.44;101086.63;5030429;28;45487;-84
2022/03/04 01:03:28;;;;;;;;;57.50;44.75;;;;;8.86;69.34;101016.03;5032521;28;45462;-88
2022/03/04 01:05:53;;;;;;;;;51.50;41.25;;;;;8.88;69.26;101023.16;5023220;28;45266;-86
2022/03/04 01:08:19;;;;;;;;;49.00;40.25;;;;;8.74;69.19;101000.66;5017555;28;45825;-93
2022/03/04 01:10:45;;;;;;;;;53.00;43.75;;;;;8.97;69.23;101033.16;5017118;28;45402;-89
2022/03/04 01:13:11;;;;;;;;;49.00;41.25;;;;;9.08;69.06;101031.03;5017931;28;45551;-92
2022/03/04 01:15:36;;;;;;;;;51.25;41.00;;;;;9.07;69.19;101021.38;5017489;28;45381;-93
2022/03/04 01:18:02;;;;;;;;;52.00;40.50;;;;;8.91;69.29;101004.03;5016818;28;45501;-90
2022/03/04 01:20:29;;;;;;;;;51.50;41.25;;;;;9.42;69.21;101083.25;5034582;28;45411;-92
2022/03/04 01:22:54;;;;;;;;;51.50;42.25;;;;;9.40;68.95;101085.78;5037785;28;45323;-92
2022/03/04 01:25:19;;;;;;;;;47.25;40.00;;;;;8.91;69.22;100996.16;5037351;28;45439;-94
2022/03/04 01:27:46;;;;;;;;;48.50;40.75;;;;;9.39;69.22;101076.13;5037441;28;46455;-92
2022/03/04 01:30:14;;;;;;;;;50.50;41.50;;;;;8.83;69.02;100979.22;5037065;28;45325;-94
2022/03/04 01:32:39;;;;;;;;;43.75;39.50;;;;;8.96;69.13;100998.16;5037125;28;45480;-90
2022/03/04 01:35:05;;;;;;;;;40.50;37.00;;;;;8.99;69.08;101007.91;5019254;28;45613;-92
2022/03/04 01:37:30;;;;;;;;;44.75;40.00;;;;;9.21;69.00;101038.59;5037175;28;45584;-92
2022/03/04 01:39:56;;;;;;;;;50.50;41.50;;;;;7.86;69.09;100804.53;5036119;28;45429;-92
2022/03/04 01:42:22;;;;;;;;;46.25;39.50;;;;;9.49;68.81;101080.97;5037427;28;45517;-92
2022/03/04 01:44:48;;;;;;;;;50.50;39.75;;;;;8.94;68.78;100983.22;5019537;28;45724;-93
2022/03/04 01:47:13;;;;;;;;;44.00;38.25;;;;;9.49;68.86;101080.97;5036813;28;45704;-94
2022/03/04 01:49:40;;;;;;;;;47.75;41.00;;;;;9.49;69.02;101086.22;5036929;28;45242;-93
2022/03/04 01:52:06;;;;;;;;;46.50;40.00;;;;;8.69;68.86;100944.53;5019055;28;45506;-92
2022/03/04 01:54:32;;;;;;;;;46.25;40.25;;;;;9.47;68.71;101079.13;5037107;28;45232;-93
2022/03/04 01:56:57;;;;;;;;;51.00;42.00;;;;;9.47;68.80;101079.13;5036814;28;45583;-92
2022/03/04 01:59:23;;;;;;;;;40.50;37.75;;;;;8.93;68.77;100973.56;5036746;28;45366;-93
2022/03/04 02:01:48;;;;;;;;;47.25;40.00;;;;;9.55;69.12;101081.22;5032749;28;45380;-91
2022/03/04 02:04:14;;;;;;;;;50.00;41.75;;;;;9.17;69.21;101006.13;5035697;28;45518;-92
2022/03/04 02:06:39;;;;;;;;;45.50;40.25;;;;;9.39;69.06;101046.38;5036467;28;46078;-93
2022/03/04 02:09:04;;;;;;;;;51.25;41.50;;;;;9.32;69.11;101019.00;5035369;28;45305;-90
2022/03/04 02:11:30;;;;;;;;;47.00;40.25;;;;;9.05;69.09;100967.13;5036665;28;45323;-93
2022/03/04 02:13:55;;;;;;;;;46.00;38.25;;;;;9.60;68.84;101062.16;5036832;28;45534;-92
2022/03/04 02:16:34;;;;;;;;;48.00;40.50;;;;;9.68;69.00;101064.28;5035753;28;46234;-94
2022/03/04 02:19:00;;;;;;;;;48.25;39.50;;;;;9.50;68.98;101039.88;5036949;28;45363;-94
2022/03/04 02:21:26;;;;;;;;;48.75;41.75;;;;;9.72;68.92;101062.72;5036998;28;45400;-91
2022/03/04 02:23:52;;;;;;;;;51.00;41.25;;;;;9.04;68.51;100938.22;5040273;28;45451;-93
2022/03/04 02:26:17;;;;;;;;;48.00;40.00;;;;;9.18;68.81;100968.56;5039961;28;46199;-95
2022/03/04 02:28:44;;;;;;;;;50.00;39.50;;;;;9.01;68.99;100941.63;5039647;28;45361;-94
2022/03/04 02:31:13;;;;;;;;;42.75;38.25;;;;;9.33;68.82;100978.81;5038348;28;45372;-94
2022/03/04 02:33:39;;;;;;;;;48.75;38.25;;;;;9.53;68.79;101012.06;5039931;28;45504;-93
2022/03/04 02:36:04;;;;;;;;;41.67;38.00;;;;;9.56;68.83;101020.06;5039856;28;45665;-92
2022/03/04 02:38:29;;;;;;;;;42.75;37.25;;;;;9.29;69.06;100966.41;5038045;28;45294;-86
2022/03/04 02:40:55;;;;;;;;;42.50;36.50;;;;;9.65;69.00;101024.78;5039766;28;45209;-93
2022/03/04 02:43:20;;;;;;;;;41.50;37.00;;;;;9.24;68.98;100945.22;5039597;28;45466;-92
2022/03/04 02:45:46;;;;;;;;;44.67;37.67;;;;;9.33;69.22;100960.47;5039326;28;45363;-93
2022/03/04 02:48:11;;;;;;;;;45.00;38.00;;;;;9.83;69.35;101043.06;5039331;28;45536;-92
2022/03/04 02:50:36;;;;;;;;;42.67;38.00;;;;;9.27;69.37;100940.13;5038608;28;45296;-93
2022/03/04 02:53:02;;;;;;;;;40.33;37.00;;;;;9.66;69.27;101004.72;5039527;28;45597;-93
2022/03/04 02:55:28;;;;;;;;;39.50;36.00;;;;;9.80;69.46;101028.09;5038484;28;45640;-96
2022/03/04 02:57:53;;;;;;;;;38.50;34.00;;;;;9.46;69.24;100977.63;5039335;28;45336;-93
2022/03/04 03:00:19;;;;;;;;;46.00;39.25;;;;;9.78;69.36;101032.38;5038328;28;45488;-92
2022/03/04 03:02:44;;;;;;;;;47.50;39.50;;;;;9.44;69.33;100958.28;5038326;28;45191;-93
2022/03/04 03:05:11;;;;;;;;;44.25;38.25;;;;;9.56;69.31;100987.69;5039112;28;45546;-92
2022/03/04 03:07:37;;;;;;;;;44.25;36.75;;;;;9.99;69.84;101057.72;5038981;28;45750;-93
2022/03/04 03:10:04;;;;;;;;;47.00;38.75;;;;;9.84;69.63;101015.97;5039243;28;45627;-93
2022/03/04 03:12:30;;;;;;;;;49.75;40.50;;;;;9.99;69.47;101053.34;5039503;28;45478;-93
2022/03/04 03:14:55;;;;;;;;;40.25;37.00;;;;;9.19;69.43;100896.94;5038798;28;46217;-91
2022/03/04 03:17:21;;;;;;;;;41.00;37.25;;;;;9.86;69.47;101016.06;5039313;28;45283;-93
2022/03/04 03:19:46;;;;;;;;;43.50;37.75;;;;;10.06;69.55;101054.53;5039352;28;45610;-92
2022/03/04 03:22:14;;;;;;;;;43.25;38.00;;;;;9.75;69.66;100998.13;5039376;28;45645;-93
2022/03/04 03:24:40;;;;;;;;;48.50;40.25;;;;;9.92;69.61;101039.94;5038562;28;45516;-92
2022/03/04 03:27:05;;;;;;;;;51.75;43.75;;;;;9.68;69.70;100980.31;5039156;28;45366;-93
2022/03/04 03:29:30;;;;;;;;;47.50;40.75;;;;;9.72;69.79;100983.97;5039306;28;45390;-94
2022/03/04 03:31:56;;;;;;;;;47.25;39.50;;;;;9.77;69.60;100992.94;5039147;28;45355;-93
2022/03/04 03:34:21;;;;;;;;;43.00;38.00;;;;;9.86;69.56;101002.94;5039082;28;46385;-94
2022/03/04 03:36:47;;;;;;;;;47.67;39.00;;;;;10.15;69.23;101067.13;5038917;28;45406;-93
2022/03/04 03:39:12;;;;;;;;;45.50;37.00;;;;;9.80;69.43;100998.28;5038609;28;45828;-94
2022/03/04 03:41:37;;;;;;;;;48.33;41.00;;;;;10.17;69.40;101054.97;5038685;28;45694;-93
2022/03/04 03:44:03;;;;;;;;;41.00;37.33;;;;;9.72;69.69;100986.59;5038588;28;45523;-94
2022/03/04 03:46:28;;;;;;;;;42.75;37.25;;;;;9.91;69.83;101007.53;5038563;28;45536;-94
2022/03/04 03:48:54;;;;;;;;;40.25;37.00;;;;;10.14;69.66;101052.22;5038759;28;45335;-94
2022/03/04 03:51:19;;;;;;;;;45.00;38.00;;;;;9.93;69.54;101015.47;5038425;28;45495;-93
2022/03/04 03:53:45;;;;;;;;;43.50;37.50;;;;;10.13;69.36;101056.56;5038562;28;46427;-89
2022/03/04 03:56:10;;;;;;;;;47.50;40.25;;;;;9.40;69.68;100919.63;5038554;28;45212;-93
2022/03/04 03:58:36;;;;;;;;;42.75;37.25;;;;;10.15;70.01;101051.38;5038611;28;45438;-93
2022/03/04 04:01:02;;;;;;;;;44.00;39.25;;;;;9.31;69.52;100912.31;5038795;28;45588;-92
2022/03/04 04:03:28;;;;;;;;;42.50;37.00;;;;;9.95;69.91;101014.72;5039424;28;46393;-93
2022/03/04 04:05:53;;;;;;;;;42.25;38.00;;;;;9.93;69.64;101004.97;5038532;28;45578;-93
2022/03/04 04:08:18;;;;;;;;;40.75;37.25;;;;;9.48;69.76;100927.00;5038441;28;45228;-92
2022/03/04 04:10:44;;;;;;;;;44.00;37.00;;;;;9.93;69.50;101013.72;5038008;28;45685;-93
2022/03/04 04:13:09;;;;;;;;;37.75;33.75;;;;;10.01;69.65;101016.69;5038179;28;45595;-93
2022/03/04 04:15:35;;;;;;;;;49.75;40.00;;;;;9.99;69.76;101015.69;5036943;28;45484;-90
2022/03/04 04:18:00;;;;;;;;;46.75;38.25;;;;;9.61;69.70;100952.03;5038293;28;45311;-94
2022/03/04 04:20:25;;;;;;;;;45.00;38.67;;;;;9.93;69.56;101011.09;5036249;28;45631;-90
2022/03/04 04:22:51;;;;;;;;;44.50;38.25;;;;;10.18;69.70;101056.75;5037767;28;46086;-94
2022/03/04 04:25:16;;;;;;;;;48.00;39.25;;;;;10.11;69.22;101042.47;5037716;28;45421;-94
2022/03/04 04:27:41;;;;;;;;;49.00;40.25;;;;;9.62;69.35;100951.19;5038563;28;45309;-93
2022/03/04 04:30:07;;;;;;;;;46.67;39.00;;;;;9.91;69.34;100999.66;5038033;28;45344;-93
2022/03/04 04:32:33;;;;;;;;;47.50;40.00;;;;;10.32;69.66;101068.75;5036724;28;47189;-93
2022/03/04 04:34:58;;;;;;;;;50.75;41.00;;;;;10.30;69.67;101059.94;5037853;28;45422;-92
2022/03/04 04:37:23;;;;;;;;;52.50;41.75;;;;;10.18;69.32;101049.78;5037708;28;45387;-93
2022/03/04 04:39:49;;;;;;;;;47.00;40.67;;;;;10.21;69.51;101049.91;5037482;28;45536;-93
2022/03/04 04:42:14;;;;;;;;;38.00;33.75;;;;;10.34;69.50;101064.44;5037819;28;45441;-93
2022/03/04 04:44:39;;;;;;;;;46.00;39.33;;;;;10.19;69.48;101048.03;5037036;28;45406;-93
2022/03/04 04:47:06;;;;;;;;;53.00;43.00;;;;;9.86;69.49;100988.06;5037726;28;45495;-91
2022/03/04 04:49:36;;;;;;;;;43.25;38.00;;;;;10.37;69.68;101071.56;5036776;28;44882;-92
2022/03/04 04:52:06;;;;;;;;;45.25;38.00;;;;;10.39;69.54;101080.41;5036725;28;45426;-92
2022/03/04 04:54:32;;;;;;;;;45.25;39.75;;;;;10.39;69.53;101090.91;5037288;28;45237;-93
2022/03/04 04:56:58;;;;;;;;;43.25;37.75;;;;;9.93;69.57;101020.72;5037770;28;45564;-94
2022/03/04 04:59:23;;;;;;;;;44.75;38.00;;;;;10.19;69.61;101064.69;5037530;28;45508;-93
2022/03/04 05:01:48;;;;;;;;;45.00;38.00;;;;;10.16;69.50;101056.72;5035965;28;47119;-92
2022/03/04 05:04:14;;;;;;;;;43.00;38.00;;;;;10.29;69.47;101098.41;5037576;28;45457;-91
2022/03/04 05:06:40;;;;;;;;;44.25;38.00;;;;;10.30;69.67;101096.72;5037863;28;45292;-93
2022/03/04 05:09:05;;;;;;;;;42.25;37.25;;;;;9.49;69.66;100955.03;5036884;28;45334;-93
2022/03/04 05:11:30;;;;;;;;;43.00;38.67;;;;;9.45;69.57;100946.97;5036190;28;47212;-93
2022/03/04 05:13:56;;;;;;;;;52.50;41.75;;;;;10.07;69.84;101056.31;5037390;28;45549;-92
2022/03/04 05:16:21;;;;;;;;;46.33;39.33;;;;;10.34;69.77;101098.59;5037509;28;45384;-93
2022/03/04 05:18:47;;;;;;;;;47.00;39.50;;;;;9.86;69.87;101024.81;5037438;28;45367;-94
2022/03/04 05:21:12;;;;;;;;;49.00;40.00;;;;;10.08;69.94;101063.34;5037037;28;45573;-94
2022/03/04 05:26:22;;;;;;;;;49.75;41.00;;;;;10.11;69.93;101068.75;5037428;28;45411;-94
2022/03/04 05:28:47;;;;;;;;;49.00;40.25;;;;;10.17;70.11;101090.00;5037189;28;45530;-93
2022/03/04 05:31:13;;;;;;;;;51.00;42.50;;;;;10.22;70.27;101088.47;5036893;28;45521;-95
2022/03/04 05:33:38;;;;;;;;;59.00;48.75;;;;;10.38;70.13;101126.81;5037140;28;45343;-93
2022/03/04 05:36:04;;;;;;;;;47.67;40.33;;;;;10.28;70.14;101101.88;5037305;28;45265;-93
2022/03/04 05:38:29;;;;;;;;;39.25;36.25;;;;;9.93;69.85;101029.47;5036159;28;45288;-93
2022/03/04 05:40:54;;;;;;;;;51.25;41.25;;;;;10.15;70.13;101072.38;5037068;28;45336;-93
2022/03/04 05:43:20;;;;;;;;;49.75;40.25;;;;;9.49;69.85;100948.88;5037100;28;45291;-94
2022/03/04 05:45:45;;;;;;;;;48.75;39.75;;;;;9.30;69.87;100910.47;5037028;28;45638;-93
2022/03/04 05:48:11;;;;;;;;;46.50;39.75;;;;;9.57;69.98;100968.47;5036971;28;45671;-94
2022/03/04 05:50:37;;;;;;;;;43.25;33.75;;;;;9.90;70.19;101021.50;5036367;28;45538;-95
2022/03/04 05:53:02;;;;;;;;;50.75;40.50;;;;;10.04;70.35;101051.81;5037037;28;45277;-94
2022/03/04 05:55:28;;;;;;;;;46.25;40.00;;;;;10.46;70.43;101119.25;5036673;28;45340;-93
2022/03/04 05:57:53;;;;;;;;;49.75;39.00;;;;;9.85;70.46;101014.22;5039312;28;45440;-95
2022/03/04 06:00:18;;;;;;;;;34.75;33.00;;;;;10.23;70.38;101074.50;5040492;28;46344;-94
2022/03/04 06:02:44;;;;;;;;;48.50;39.00;;;;;10.18;70.36;101065.53;5040692;28;45462;-93
2022/03/04 06:05:09;;;;;;;;;46.25;38.25;;;;;10.02;70.24;101048.25;5040930;28;45510;-92
2022/03/04 06:07:35;;;;;;;;;44.50;38.75;;;;;10.30;70.36;101091.47;5040109;28;45656;-94
2022/03/04 06:10:02;;;;;;;;;53.25;43.00;;;;;10.47;70.65;101124.56;5039927;28;45690;-94
2022/03/04 06:12:28;;;;;;;;;45.00;38.25;;;;;9.96;70.55;101028.72;5040502;28;45713;-93
2022/03/04 06:14:53;;;;;;;;;50.00;42.75;;;;;9.67;70.29;100986.41;5040731;28;45628;-93
2022/03/04 06:17:18;;;;;;;;;49.33;42.00;;;;;10.31;70.64;101098.50;5040248;28;45785;-96
2022/03/04 06:19:44;;;;;;;;;46.50;40.25;;;;;9.95;70.45;101033.09;5039968;28;46338;-95
2022/03/04 06:22:10;;;;;;;;;45.75;38.25;;;;;10.05;70.49;101055.38;5039888;28;45538;-90
2022/03/04 06:24:36;;;;;;;;;51.75;41.50;;;;;9.89;70.53;101034.53;5040060;28;45189;-92
2022/03/04 06:27:01;;;;;;;;;48.25;41.00;;;;;10.18;70.78;101097.03;5040263;28;45519;-93
2022/03/04 06:29:27;;;;;;;;;46.00;39.75;;;;;10.47;70.72;101127.19;5040342;28;45367;-93
2022/03/04 06:31:52;;;;;;;;;51.00;40.00;;;;;9.78;70.59;101018.34;5040071;28;45555;-93
2022/03/04 06:34:17;;;;;;;;;48.00;40.75;;;;;10.48;70.78;101134.22;5039860;28;45395;-94
2022/03/04 06:36:43;;;;;;;;;44.75;39.25;;;;;9.94;70.61;101047.03;5038638;28;45615;-94
2022/03/04 06:39:08;;;;;;;;;52.00;42.75;;;;;10.02;70.64;101052.59;5039241;28;46080;-94
2022/03/04 06:41:33;;;;;;;;;49.50;39.00;;;;;10.20;70.57;101087.53;5040054;28;45490;-94
2022/03/04 06:43:59;;;;;;;;;46.25;40.00;;;;;10.25;70.62;101096.53;5042781;28;45225;-95
2022/03/04 06:46:24;;;;;;;;;50.50;41.75;;;;;10.15;70.70;101080.25;5041677;28;45255;-95
2022/03/04 06:48:50;;;;;;;;;50.75;41.75;;;;;9.83;70.63;101022.06;5046691;28;45143;-95
2022/03/04 06:51:16;;;;;;;;;44.75;40.00;;;;;9.91;70.51;101038.16;5050849;28;45318;-93
2022/03/04 06:53:41;;;;;;;;;49.00;41.50;;;;;10.21;70.56;101097.19;5038334;28;45371;-94
2022/03/04 06:56:07;;;;;;;;;60.75;50.00;;;;;10.40;70.59;101135.66;5039626;28;45338;-94
2022/03/04 06:58:35;;;;;;;;;53.50;44.50;;;;;10.48;70.64;101143.84;5039798;28;46407;-94
2022/03/04 07:01:01;;;;;;;;;46.25;40.00;;;;;10.20;70.51;101098.03;5036569;28;45869;-91
2022/03/04 07:03:26;;;;;;;;;57.50;46.00;;;;;10.66;70.43;101172.63;5036494;28;45545;-94
2022/03/04 07:05:52;;;;;;;;;52.25;44.75;;;;;10.69;70.32;101180.63;5036427;28;45464;-89
2022/03/04 07:08:17;;;;;;;;;55.50;44.75;;;;;10.52;70.32;101151.94;5017176;28;47211;-87
2022/03/04 07:10:43;;;;;;;;;60.00;47.75;;;;;10.40;70.22;101130.41;5035947;28;45500;-88
2022/03/04 07:13:10;;;;;;;;;51.00;43.25;;;;;10.67;70.29;101174.41;5039754;28;45477;-90
2022/03/04 07:15:35;;;;;;;;;60.25;46.00;;;;;9.69;70.48;101016.22;5032909;28;45439;-87
2022/03/04 07:18:02;;;;;;;;;54.25;45.25;;;;;10.25;70.53;101093.00;5011542;28;46623;-86
2022/03/04 07:20:27;;;;;;;;;62.25;48.25;;;;;10.38;70.77;101113.66;5029177;28;45639;-94
2022/03/04 07:22:53;;;;;;;;;52.50;44.50;;;;;10.35;70.46;101113.56;5032895;28;45294;-92
2022/03/04 07:25:18;;;;;;;;;55.75;45.25;;;;;10.45;70.44;101120.09;5025261;28;45617;-91
2022/03/04 07:27:44;;;;;;;;;59.50;47.25;;;;;10.85;70.62;101188.31;5034055;28;46237;-91
2022/03/04 07:30:12;;;;;;;;;56.25;45.75;;;;;10.88;70.59;101188.44;5027183;28;45627;-88
2022/03/04 07:32:39;;;;;;;;;60.00;48.00;;;;;10.48;70.63;101117.56;5018929;28;45483;-84
2022/03/04 07:35:06;;;;;;;;;59.50;47.25;;;;;10.91;70.60;101191.19;5026313;28;45500;-88
2022/03/04 07:37:32;;;;;;;;;52.75;43.25;;;;;10.56;70.66;101122.31;5026493;28;46173;-89
2022/03/04 07:39:57;;;;;;;;;49.33;41.67;;;;;10.69;70.77;101136.84;5025284;28;45653;-85
2022/03/04 07:42:23;;;;;;;;;54.00;44.00;;;;;10.89;70.62;101165.69;5024815;28;45445;-90
2022/03/04 07:44:49;;;;;;;;;53.50;45.00;;;;;10.79;70.30;101141.66;5030748;28;45341;-91
2022/03/04 07:47:14;;;;;;;;;50.75;42.25;;;;;10.64;70.57;101114.75;5022826;28;45462;-91
2022/03/04 07:49:42;;;;;;;;;53.67;43.67;;;;;11.07;70.82;101183.06;5020379;28;45524;-95
2022/03/04 07:52:08;;;;;;;;;55.00;43.00;;;;;11.18;70.96;101201.00;5028038;28;45298;-95
2022/03/04 07:54:33;;;;;;;;;63.00;52.00;;;;;10.31;70.63;101036.34;5028410;28;45617;-93
2022/03/04 07:56:59;;;;;;;;;59.00;48.25;;;;;10.52;70.55;101073.09;5035948;28;46142;-92
2022/03/04 07:59:24;;;;;;;;;62.00;50.33;;;;;11.30;69.92;101202.38;5036773;28;45384;-90
2022/03/04 08:01:49;;;;;;;;;262.67;222.00;;;;;11.23;69.93;101188.91;5023391;28;45681;-86
2022/03/04 08:04:15;;;;;;;;;129.67;115.67;;;;;11.14;69.84;101163.19;5014385;28;45757;-85
2022/03/04 08:06:40;;;;;;;;;329.67;286.00;;;;;11.40;69.28;101213.28;5035858;28;45426;-80
2022/03/04 08:09:06;;;;;;;;;91.00;80.75;;;;;10.96;69.11;101142.31;5035799;28;45642;-89
2022/03/04 08:11:31;;;;;;;;;88.75;77.50;;;;;11.39;69.00;101217.66;5024214;28;45564;-86
2022/03/04 08:13:57;;;;;;;;;74.75;59.75;;;;;11.37;69.10;101216.69;5037415;28;45504;-90
2022/03/04 08:16:24;;;;;;;;;65.00;50.00;;;;;10.43;69.05;101059.56;5040914;28;47068;-92
2022/03/04 08:18:50;;;;;;;;;62.00;49.50;;;;;10.98;69.00;101134.47;5042468;28;45615;-94
2022/03/04 08:21:15;;;;;;;;;64.25;51.50;;;;;10.87;69.09;101123.53;5051796;28;45013;-91
2022/03/04 08:23:40;;;;;;;;;56.25;46.00;;;;;11.53;69.18;101211.19;5011487;28;45552;-88
2022/03/04 08:26:06;;;;;;;;;65.25;52.00;;;;;11.62;69.08;101223.78;5038302;28;46026;-92
2022/03/04 08:28:33;;;;;;;;;222.25;193.25;;;;;11.06;68.94;101120.78;5044393;28;45718;-93
2022/03/04 08:30:59;;;;;;;;;98.00;85.75;;;;;10.68;68.67;101043.03;5049181;28;45479;-91
2022/03/04 08:33:25;;;;;;;;;74.50;59.00;;;;;11.69;68.57;101209.13;5048075;28;45176;-91
2022/03/04 08:35:50;;;;;;;;;70.75;56.50;;;;;11.23;68.39;101134.59;5046651;28;45847;-89
2022/03/04 08:38:15;;;;;;;;;63.75;52.25;;;;;11.66;68.39;101194.09;5034849;28;45514;-81
2022/03/04 08:40:41;;;;;;;;;99.00;92.67;;;;;11.70;68.34;101196.00;5036751;28;46745;-80
2022/03/04 08:43:06;;;;;;;;;70.75;55.25;;;;;11.68;68.27;101170.47;5021543;28;45457;-81
2022/03/04 08:45:33;;;;;;;;;89.75;78.25;;;;;11.63;68.17;101157.16;5011022;28;48055;-80
2022/03/04 08:47:59;;;;;;;;;128.50;116.50;;;;;11.90;68.18;101196.78;5034123;28;45445;-83
2022/03/04 08:50:25;;;;;;;;;69.75;55.50;;;;;11.76;67.90;101164.63;5034499;28;45352;-86
2022/03/04 08:52:50;;;;;;;;;68.75;55.00;;;;;12.31;67.93;101250.06;5029190;28;45787;-81
2022/03/04 08:55:16;;;;;;;;;67.25;53.50;;;;;11.87;67.43;101159.78;5032136;28;45460;-81
2022/03/04 08:57:46;;;;;;;;;66.25;52.00;;;;;12.23;67.34;101212.00;5033563;28;45329;-80
2022/03/04 09:00:14;;;;;;;;;64.00;51.00;;;;;12.20;67.61;101201.34;5031608;28;45403;-80
2022/03/04 09:02:39;;;;;;;;;68.75;54.00;;;;;12.21;67.30;101189.97;5033460;28;45638;-80
2022/03/04 09:05:05;;;;;;;;;70.25;54.75;;;;;12.21;67.25;101174.16;5022364;28;47229;-80
2022/03/04 09:07:31;;;;;;;;;68.50;54.50;;;;;12.70;67.33;101245.25;5031741;28;45256;-83
2022/03/04 09:09:57;;;;;;;;;69.00;53.25;;;;;12.19;66.95;101144.22;5033157;28;45702;-89
2022/03/04 09:12:22;;;;;;;;;68.75;54.00;;;;;12.66;66.54;101206.47;5033044;28;45539;-81
2022/03/04 09:14:47;;;;;;;;;64.00;53.00;;;;;12.02;66.67;101089.22;5032991;28;45417;-81
2022/03/04 09:17:13;;;;;;;;;69.00;53.33;;;;;12.69;66.39;101190.72;5033187;28;45521;-80
2022/03/04 09:19:39;;;;;;;;;65.00;52.67;;;;;12.85;66.34;101198.28;5033563;28;45435;-82
2022/03/04 09:22:04;;;;;;;;;71.25;56.25;;;;;13.14;66.47;101241.44;5033222;28;45471;-80
2022/03/04 09:24:30;;;;;;;;;70.00;55.67;;;;;13.17;66.46;101231.00;5032720;28;45458;-81
2022/03/04 09:26:55;;;;;;;;;69.75;55.00;;;;;13.34;65.97;101247.41;5036309;28;45624;-89
2022/03/04 09:29:21;;;;;;;;;67.00;52.00;;;;;12.66;66.07;101124.72;5052620;28;44922;-82
2022/03/04 09:31:46;;;;;;;;;63.50;49.25;;;;;13.14;65.81;101179.84;5034072;28;45516;-81
2022/03/04 09:34:12;;;;;;;;;69.25;54.00;;;;;12.91;65.55;101132.56;5037341;28;47110;-85
2022/03/04 09:36:37;;;;;;;;;66.75;53.75;;;;;13.17;65.47;101179.97;5035402;28;45444;-81
2022/03/04 09:39:03;;;;;;;;;69.50;55.00;;;;;13.31;64.99;101196.28;5032454;28;45442;-81
2022/03/04 09:41:29;;;;;;;;;69.25;55.00;;;;;13.59;65.45;101233.19;5033477;28;45384;-81
2022/03/04 09:43:55;;;;;;;;;73.00;55.75;;;;;12.93;64.87;101116.75;5033301;28;46354;-81
2022/03/04 09:46:21;;;;;;;;;67.50;54.25;;;;;13.62;65.05;101240.34;5031876;28;45748;-84
2022/03/04 09:48:48;;;;;;;;;69.25;55.00;;;;;13.49;64.65;101220.56;5047790;28;45060;-93
2022/03/04 09:51:14;;;;;;;;;72.25;56.75;;;;;13.53;64.87;101221.56;5053298;28;44922;-93
2022/03/04 09:53:39;;;;;;;;;71.25;56.50;;;;;13.33;64.40;101179.59;5035546;28;45894;-91
2022/03/04 09:56:04;;;;;;;;;71.25;56.50;;;;;13.45;64.51;101187.03;5034660;28;45474;-93
2022/03/04 09:58:30;;;;;;;;;72.00;57.00;;;;;13.36;64.56;101169.16;5006887;28;45646;-82
2022/03/04 10:00:55;;;;;;;;;73.00;55.25;;;;;13.52;64.34;101188.09;5023782;28;45470;-84
2022/03/04 10:03:22;;;;;;;;;75.50;59.00;;;;;13.98;64.02;101248.44;5035015;28;46181;-92
2022/03/04 10:05:56;;;;;;;;;72.00;57.50;;;;;14.07;64.03;101250.44;5034770;28;45473;-83
2022/03/04 10:08:23;;;;;;;;;70.75;55.50;;;;;14.00;63.67;101224.72;5034090;28;45544;-92
2022/03/04 10:10:52;;;;;;;;;71.00;55.25;;;;;13.94;63.39;101201.66;5025298;28;45472;-93
2022/03/04 10:13:39;;;;;;;;;73.25;57.25;;;;;13.98;63.24;101194.69;5035684;28;46960;-93
2022/03/04 10:16:04;;;;;;;;;74.00;57.75;;;;;14.06;62.76;101199.34;4999287;28;45532;-87
2022/03/04 10:18:30;;;;;;;;;76.00;61.00;;;;;14.19;63.17;101213.81;5036227;28;45438;-86
2022/03/04 10:20:56;;;;;;;;;77.00;61.75;;;;;14.45;63.25;101247.13;5034527;28;44817;-92
2022/03/04 10:23:24;;;;;;;;;74.25;57.00;;;;;14.38;62.57;101225.75;5032810;28;46228;-84
2022/03/04 10:25:53;;;;;;;;;76.00;58.25;;;;;14.53;62.46;101243.81;5041857;28;45835;-94
2022/03/04 10:28:22;;;;;;;;;74.00;57.75;;;;;14.45;62.44;101225.97;5038998;28;44893;-94
2022/03/04 10:30:48;;;;;;;;;72.00;57.50;;;;;14.67;62.32;101242.41;5027535;28;45460;-92
2022/03/04 10:33:17;;;;;;;;;71.75;56.00;;;;;14.40;62.36;101201.16;5027633;28;45491;-91
2022/03/04 10:35:44;;;;;;;;;74.25;57.25;;;;;14.78;62.50;101245.34;5046002;28;45254;-81
2022/03/04 10:38:25;;;;;;;;;77.00;58.50;;;;;14.67;62.07;101231.84;5024198;28;45442;-81
2022/03/04 10:40:51;;;;;;;;;73.00;60.50;;;;;14.69;61.82;101238.97;5023906;28;45403;-82
2022/03/04 10:43:24;;;;;;;;;73.25;57.50;;;;;14.85;62.07;101255.25;5028030;28;46438;-81
2022/03/04 10:46:05;;;;;;;;;73.00;57.00;;;;;14.89;61.85;101260.66;5019686;28;45767;-84
2022/03/04 10:48:31;;;;;;;;;72.75;58.00;;;;;14.89;61.44;101233.28;5036182;28;45427;-87
2022/03/04 10:50:59;;;;;;;;;75.75;60.25;;;;;14.98;61.60;101248.50;5046687;28;45088;-92
2022/03/04 10:53:29;;;;;;;;;76.00;61.50;;;;;14.08;61.35;101102.47;5047590;28;45451;-93
2022/03/04 10:56:04;;;;;;;;;72.00;56.75;;;;;14.11;60.99;101080.53;5031060;28;45242;-85
2022/03/04 10:58:37;;;;;;;;;74.25;59.50;;;;;14.53;60.81;101161.81;5041998;28;45484;-92
2022/03/04 11:01:12;;;;;;;;;76.50;63.25;;;;;14.71;60.96;101164.91;5035919;28;45293;-87
2022/03/04 11:03:39;;;;;;;;;74.75;59.75;;;;;15.19;60.85;101241.06;5034287;28;45560;-87
2022/03/04 11:06:07;;;;;;;;;71.25;57.50;;;;;14.20;60.53;101060.50;5021994;28;46458;-91
2022/03/04 11:08:33;;;;;;;;;72.75;58.00;;;;;15.23;60.27;101232.34;5030322;28;45428;-89